createdAt,value
2022-08-27T00:00:08.194Z,54.42
2022-08-27T00:05:07.948Z,54.43
2022-08-27T00:10:07.672Z,54.44
2022-08-27T00:15:08.370Z,54.45
2022-08-27T00:20:07.951Z,54.49
2022-08-27T00:25:07.651Z,54.47
2022-08-27T00:30:08.346Z,54.49
2022-08-27T00:35:08.105Z,54.49
2022-08-27T00:40:07.906Z,54.5
2022-08-27T00:45:07.633Z,54.51
2022-08-27T00:50:08.306Z,54.5
2022-08-27T00:55:08.027Z,54.53
2022-08-27T01:00:07.731Z,54.51
2022-08-27T01:05:08.595Z,54.52
2022-08-27T01:10:08.317Z,54.54
2022-08-27T01:15:08.018Z,54.53
2022-08-27T01:20:07.762Z,54.53
2022-08-27T01:25:08.462Z,54.55
2022-08-27T01:30:08.173Z,54.55
2022-08-27T01:35:07.888Z,54.56
2022-08-27T01:40:08.680Z,54.58
2022-08-27T01:45:08.423Z,54.56
2022-08-27T01:50:08.099Z,54.58
2022-08-27T01:55:07.802Z,54.59
2022-08-27T02:00:08.574Z,54.59
2022-08-27T02:05:08.280Z,54.59
2022-08-27T02:10:08.000Z,54.59
2022-08-27T02:15:07.733Z,54.59
2022-08-27T02:20:08.407Z,54.61
2022-08-27T02:25:10.194Z,54.6
2022-08-27T02:30:09.888Z,54.6
2022-08-27T02:35:08.603Z,54.63
2022-08-27T02:40:08.350Z,54.63
2022-08-27T02:45:08.112Z,54.62
2022-08-27T02:50:07.829Z,54.65
2022-08-27T02:55:08.538Z,54.65
2022-08-27T03:00:08.386Z,54.65
2022-08-27T03:05:08.117Z,54.67
2022-08-27T03:10:07.843Z,54.66
2022-08-27T03:15:08.596Z,54.68
2022-08-27T03:20:08.317Z,54.67
2022-08-27T03:25:08.023Z,54.68
2022-08-27T03:30:07.723Z,54.7
2022-08-27T03:35:08.428Z,54.71
2022-08-27T03:40:08.282Z,54.71
2022-08-27T03:45:08.014Z,54.7
2022-08-27T03:50:07.924Z,54.68
2022-08-27T03:55:08.625Z,54.73
2022-08-27T04:00:08.339Z,54.72
2022-08-27T04:05:02.180Z,54.73
2022-08-27T04:10:02.031Z,54.73
2022-08-27T04:15:01.855Z,54.74
2022-08-27T04:20:33.614Z,54.75
2022-08-27T04:25:02.186Z,54.76
2022-08-27T04:30:01.942Z,54.77
2022-08-27T04:35:02.806Z,54.79
2022-08-27T04:40:02.700Z,54.81
2022-08-27T04:45:02.605Z,54.81
2022-08-27T04:50:05.745Z,54.82
2022-08-27T04:55:02.853Z,54.85
2022-08-27T05:00:02.701Z,54.85
2022-08-27T05:05:02.696Z,54.85
2022-08-27T05:10:02.749Z,54.84
2022-08-27T05:15:02.669Z,54.85
2022-08-27T05:20:02.601Z,54.85
2022-08-27T05:25:02.496Z,54.89
2022-08-27T05:30:02.320Z,54.89
2022-08-27T05:35:02.138Z,54.91
2022-08-27T05:40:02.122Z,54.91
2022-08-27T05:45:02.099Z,54.91
2022-08-27T05:50:01.943Z,54.89
2022-08-27T05:55:01.759Z,54.9
2022-08-27T06:00:02.625Z,54.9
2022-08-27T06:05:02.771Z,54.91
2022-08-27T06:10:02.560Z,54.9
2022-08-27T06:15:02.377Z,54.92
2022-08-27T06:20:02.266Z,54.91
2022-08-27T06:25:02.103Z,54.9
2022-08-27T06:30:02.001Z,54.9
2022-08-27T06:35:01.982Z,54.87
2022-08-27T06:40:01.985Z,54.89
2022-08-27T06:45:01.889Z,54.89
2022-08-27T06:50:02.629Z,54.88
2022-08-27T06:55:02.475Z,54.89
2022-08-27T07:00:02.475Z,54.88
2022-08-27T07:05:02.353Z,54.89
2022-08-27T07:10:02.229Z,54.91
2022-08-27T07:15:03.101Z,54.9
2022-08-27T07:20:02.940Z,54.87
2022-08-27T07:25:02.798Z,54.86
2022-08-27T07:30:02.724Z,54.84
2022-08-27T07:35:02.629Z,54.79
2022-08-27T07:40:02.792Z,54.78
2022-08-27T07:45:02.863Z,54.75
2022-08-27T07:50:02.868Z,54.7
2022-08-27T07:55:02.767Z,54.68
2022-08-27T08:00:02.749Z,54.62
2022-08-27T08:05:02.670Z,54.58
2022-08-27T08:10:02.620Z,54.53
2022-08-27T08:15:02.417Z,54.48
2022-08-27T08:20:19.882Z,54.4
2022-08-27T08:25:02.805Z,54.37
2022-08-27T08:30:02.625Z,54.29
2022-08-27T08:35:02.480Z,54.23
2022-08-27T08:40:02.487Z,54.16
2022-08-27T08:45:02.365Z,54.12
2022-08-27T08:50:02.244Z,54.04
2022-08-27T08:55:02.131Z,53.99
2022-08-27T09:00:02.094Z,53.9
2022-08-27T09:05:01.955Z,53.81
2022-08-27T09:10:01.920Z,53.75
2022-08-27T09:15:02.756Z,53.66
2022-08-27T09:20:01.951Z,53.63
2022-08-27T09:25:05.789Z,53.59
2022-08-27T09:30:07.791Z,53.51
2022-08-27T09:35:03.289Z,53.45
2022-08-27T09:40:13.679Z,53.37
2022-08-27T09:45:01.735Z,53.3
2022-08-27T09:50:07.074Z,53.26
2022-08-27T09:55:02.243Z,53.22
2022-08-27T10:00:01.811Z,53.16
2022-08-27T10:05:02.643Z,53.12
2022-08-27T10:10:02.797Z,53.07
2022-08-27T10:15:02.844Z,53.05
2022-08-27T10:20:02.884Z,52.98
2022-08-27T10:25:02.987Z,52.98
2022-08-27T10:30:02.049Z,52.92
2022-08-27T10:35:02.101Z,52.86
2022-08-27T10:40:03.109Z,52.79
2022-08-27T10:45:02.188Z,52.77
2022-08-27T10:50:02.077Z,52.68
2022-08-27T10:55:02.035Z,52.59
2022-08-27T11:00:12.802Z,52.47
2022-08-27T11:05:02.729Z,52.44
2022-08-27T11:10:02.671Z,52.34
2022-08-27T11:15:02.511Z,52.25
2022-08-27T11:20:02.365Z,52.13
2022-08-27T11:25:02.320Z,52.08
2022-08-27T11:30:02.256Z,51.91
2022-08-27T11:35:02.094Z,51.9
2022-08-27T11:40:07.439Z,51.87
2022-08-27T11:45:02.301Z,51.91
2022-08-27T11:50:02.097Z,51.76
2022-08-27T11:55:01.901Z,51.69
2022-08-27T12:00:02.013Z,51.56
2022-08-27T12:05:02.203Z,51.5
2022-08-27T12:10:02.181Z,51.27
2022-08-27T12:15:02.052Z,51.18
2022-08-27T12:20:01.923Z,51.02
2022-08-27T12:25:02.782Z,50.99
2022-08-27T12:30:02.711Z,50.86
2022-08-27T12:35:02.534Z,50.85
2022-08-27T12:40:02.676Z,50.81
2022-08-27T12:45:02.618Z,50.79
2022-08-27T12:50:02.650Z,50.81
2022-08-27T12:55:02.698Z,50.81
2022-08-27T13:00:02.762Z,50.86
2022-08-27T13:05:02.753Z,50.83
2022-08-27T13:10:02.897Z,50.81
2022-08-27T13:15:03.048Z,50.8
2022-08-27T13:20:01.977Z,50.76
2022-08-27T13:25:01.933Z,50.74
2022-08-27T13:30:02.851Z,50.63
2022-08-27T13:35:02.699Z,50.58
2022-08-27T13:40:02.665Z,50.5
2022-08-27T13:45:02.578Z,50.46
2022-08-27T13:50:02.487Z,50.36
2022-08-27T13:55:12.427Z,50.31
2022-08-27T14:00:02.338Z,50.25
2022-08-27T14:05:02.174Z,50.22
2022-08-27T14:10:02.106Z,50.12
2022-08-27T14:15:02.010Z,50.07
2022-08-27T14:20:01.965Z,50.04
2022-08-27T14:25:01.924Z,50.02
2022-08-27T14:30:02.836Z,49.97
2022-08-27T14:35:02.761Z,49.95
2022-08-27T14:40:02.958Z,49.94
2022-08-27T14:45:02.011Z,49.95
2022-08-27T14:50:02.089Z,49.94
2022-08-27T14:55:02.277Z,49.96
2022-08-27T15:00:02.219Z,49.98
2022-08-27T15:05:07.905Z,50.0
2022-08-27T15:10:02.018Z,50.02
2022-08-27T15:15:02.129Z,50.02
2022-08-27T15:20:02.001Z,50.04
2022-08-27T15:25:02.046Z,50.03
2022-08-27T15:30:02.142Z,50.05
2022-08-27T15:35:02.149Z,50.06
2022-08-27T15:40:02.202Z,50.06
2022-08-27T15:45:02.134Z,50.06
2022-08-27T15:50:02.500Z,50.11
2022-08-27T15:55:02.389Z,50.13
2022-08-27T16:00:02.777Z,50.11
2022-08-27T16:05:02.731Z,50.16
2022-08-27T16:10:02.687Z,50.21
2022-08-27T16:15:02.693Z,50.2
2022-08-27T16:20:02.776Z,50.25
2022-08-27T16:25:02.628Z,50.26
2022-08-27T16:30:02.494Z,50.27
2022-08-27T16:35:02.472Z,50.29
2022-08-27T16:40:02.435Z,50.32
2022-08-27T16:45:02.624Z,50.33
2022-08-27T16:50:02.545Z,50.34
2022-08-27T16:55:02.499Z,50.37
2022-08-27T17:00:02.494Z,50.39
2022-08-27T17:05:23.836Z,50.4
2022-08-27T17:10:05.860Z,50.42
2022-08-27T17:15:01.953Z,50.44
2022-08-27T17:20:01.973Z,50.47
2022-08-27T17:25:01.827Z,50.49
2022-08-27T17:30:02.774Z,50.56
2022-08-27T17:35:06.090Z,50.56
2022-08-27T17:40:03.773Z,50.54
2022-08-27T17:45:02.676Z,50.55
2022-08-27T17:50:03.334Z,50.59
2022-08-27T17:55:02.472Z,50.62
2022-08-27T18:00:04.943Z,50.62
2022-08-27T18:05:02.292Z,50.64
2022-08-27T18:10:02.205Z,50.69
2022-08-27T18:15:02.134Z,50.69
2022-08-27T18:20:02.076Z,50.71
2022-08-27T18:25:02.158Z,50.71
2022-08-27T18:30:02.163Z,50.73
2022-08-27T18:35:02.118Z,50.75
2022-08-27T18:40:02.172Z,50.73
2022-08-27T18:45:05.719Z,50.77
2022-08-27T18:50:02.068Z,50.79
2022-08-27T18:55:01.976Z,50.78
2022-08-27T19:00:01.936Z,50.81
2022-08-27T19:05:02.903Z,50.81
2022-08-27T19:10:02.895Z,50.85
2022-08-27T19:15:02.779Z,50.85
2022-08-27T19:20:02.694Z,50.88
2022-08-27T19:25:02.471Z,50.87
2022-08-27T19:30:02.278Z,50.89
2022-08-27T19:35:02.220Z,50.89
2022-08-27T19:40:02.095Z,50.89
2022-08-27T19:45:01.982Z,50.92
2022-08-27T19:50:01.837Z,50.94
2022-08-27T19:55:13.664Z,50.96
2022-08-27T20:00:02.183Z,50.97
2022-08-27T20:05:17.435Z,50.99
2022-08-27T20:10:08.149Z,51.03
2022-08-27T20:15:02.471Z,51.05
2022-08-27T20:20:01.927Z,51.08
2022-08-27T20:25:02.917Z,51.11
2022-08-27T20:30:02.823Z,51.14
2022-08-27T20:35:02.675Z,51.16
2022-08-27T20:40:02.595Z,51.17
2022-08-27T20:45:02.461Z,51.2
2022-08-27T20:50:03.318Z,51.24
2022-08-27T20:55:02.529Z,51.24
2022-08-27T21:00:02.462Z,51.26
2022-08-27T21:05:02.528Z,51.29
2022-08-27T21:10:02.615Z,51.32
2022-08-27T21:15:02.686Z,51.36
2022-08-27T21:20:02.694Z,51.37
2022-08-27T21:25:02.491Z,51.39
2022-08-27T21:30:02.417Z,51.43
2022-08-27T21:35:15.043Z,51.45
2022-08-27T21:40:07.901Z,51.47
2022-08-27T21:45:07.679Z,51.47
2022-08-27T21:50:08.363Z,51.51
2022-08-27T21:55:08.089Z,51.54
2022-08-27T22:00:07.837Z,51.57
2022-08-27T22:05:08.547Z,51.58
2022-08-27T22:10:08.264Z,51.63
2022-08-27T22:15:07.961Z,51.67
2022-08-27T22:20:07.680Z,51.67
2022-08-27T22:25:08.421Z,51.74
2022-08-27T22:30:11.150Z,51.77
2022-08-27T22:35:08.149Z,51.79
2022-08-27T22:40:07.900Z,51.82
2022-08-27T22:45:08.356Z,51.86
2022-08-27T22:50:08.309Z,51.9
2022-08-27T22:55:08.023Z,51.89
2022-08-27T23:00:59.952Z,51.94
2022-08-27T23:05:08.651Z,51.98
2022-08-27T23:10:08.466Z,52.02
2022-08-27T23:15:08.140Z,52.03
2022-08-27T23:20:07.872Z,52.08
2022-08-27T23:25:08.591Z,52.1
2022-08-27T23:30:08.296Z,52.12
2022-08-27T23:35:08.025Z,52.19
2022-08-27T23:40:07.794Z,52.18
2022-08-27T23:45:09.637Z,52.24
2022-08-27T23:50:08.380Z,52.24
2022-08-27T23:55:08.110Z,52.3
